createdAt,value
2023-04-11T00:00:53.240Z,42.01
2023-04-11T00:01:53.408Z,42.17
2023-04-11T00:02:53.419Z,42.45
2023-04-11T00:03:53.425Z,42.59
2023-04-11T00:04:53.259Z,42.59
2023-04-11T00:05:53.308Z,42.40
2023-04-11T00:06:53.314Z,41.96
2023-04-11T00:07:53.374Z,41.64
2023-04-11T00:08:53.734Z,41.89
2023-04-11T00:09:53.504Z,42.31
2023-04-11T00:10:53.549Z,42.72
2023-04-11T00:11:53.621Z,42.60
2023-04-11T00:12:53.657Z,42.41
2023-04-11T00:13:53.632Z,42.28
2023-04-11T00:14:53.686Z,42.55
2023-04-11T00:15:53.709Z,42.54
2023-04-11T00:16:53.826Z,42.58
2023-04-11T00:17:53.885Z,42.90
2023-04-11T00:18:53.905Z,43.10
2023-04-11T00:19:53.703Z,43.33
2023-04-11T00:20:53.721Z,43.31
2023-04-11T00:21:54.597Z,43.19
2023-04-11T00:22:53.776Z,42.95
2023-04-11T00:23:53.779Z,42.77
2023-04-11T00:24:54.619Z,43.01
2023-04-11T00:25:53.787Z,43.25
2023-04-11T00:26:53.817Z,43.25
2023-04-11T00:27:53.807Z,42.96
2023-04-11T00:28:53.982Z,42.78
2023-04-11T00:29:53.774Z,42.84
2023-04-11T00:30:53.877Z,43.00
2023-04-11T00:31:53.886Z,42.94
2023-04-11T00:32:53.955Z,42.75
2023-04-11T00:33:53.823Z,42.66
2023-04-11T00:34:53.844Z,42.66
2023-04-11T00:35:54.677Z,42.91
2023-04-11T00:36:53.915Z,42.78
2023-04-11T00:37:53.880Z,42.75
2023-04-11T00:38:54.569Z,42.54
2023-04-11T00:39:54.020Z,42.34
2023-04-11T00:40:53.997Z,42.18
2023-04-11T00:41:54.000Z,42.09
2023-04-11T00:42:54.024Z,41.76
2023-04-11T00:43:54.066Z,41.54
2023-04-11T00:44:54.072Z,41.39
2023-04-11T00:45:54.117Z,41.23
2023-04-11T00:46:54.100Z,41.03
2023-04-11T00:47:54.150Z,41.21
2023-04-11T00:48:54.648Z,41.06
2023-04-11T00:49:54.097Z,40.98
2023-04-11T00:50:54.162Z,40.93
2023-04-11T00:51:54.534Z,40.96
2023-04-11T00:52:54.287Z,40.80
2023-04-11T00:53:54.619Z,40.73
2023-04-11T00:54:54.297Z,40.46
2023-04-11T00:55:54.295Z,40.67
2023-04-11T00:56:54.302Z,40.92
2023-04-11T00:57:54.351Z,41.10
2023-04-11T00:58:54.575Z,41.14
2023-04-11T00:59:54.415Z,41.17
2023-04-11T01:00:54.494Z,41.05
2023-04-11T01:01:54.633Z,40.93
2023-04-11T01:02:54.702Z,40.93
2023-04-11T01:03:54.734Z,41.04
2023-04-11T01:04:54.730Z,41.65
2023-04-11T01:05:54.817Z,42.15
2023-04-11T01:06:54.783Z,42.05
2023-04-11T01:07:54.795Z,41.99
2023-04-11T01:08:55.048Z,42.18
2023-04-11T01:09:54.802Z,42.50
2023-04-11T01:10:54.774Z,42.45
2023-04-11T01:11:54.799Z,42.24
2023-04-11T01:12:54.769Z,42.61
2023-04-11T01:13:54.792Z,42.93
2023-04-11T01:14:54.875Z,43.47
2023-04-11T01:15:55.201Z,43.40
2023-04-11T01:16:54.958Z,43.58
2023-04-11T01:17:54.978Z,43.38
2023-04-11T01:18:55.142Z,43.11
2023-04-11T01:19:55.012Z,42.93
2023-04-11T01:20:55.072Z,42.94
2023-04-11T01:21:55.097Z,43.22
2023-04-11T01:22:55.134Z,43.27
2023-04-11T01:23:55.167Z,43.50
2023-04-11T01:24:55.202Z,43.33
2023-04-11T01:25:55.573Z,43.06
2023-04-11T01:26:55.629Z,43.20
2023-04-11T01:27:55.365Z,43.45
2023-04-11T01:28:55.521Z,43.71
2023-04-11T01:29:55.420Z,44.05
2023-04-11T01:30:55.566Z,43.84
2023-04-11T01:31:55.593Z,43.41
2023-04-11T01:32:56.365Z,43.16
2023-04-11T01:33:55.747Z,42.77
2023-04-11T01:34:55.744Z,42.54
2023-04-11T01:35:55.804Z,42.35
2023-04-11T01:36:55.836Z,42.26
2023-04-11T01:37:55.930Z,42.35
2023-04-11T01:38:56.434Z,42.69
2023-04-11T01:39:55.983Z,42.80
2023-04-11T01:40:55.937Z,42.77
2023-04-11T01:41:57.039Z,42.68
2023-04-11T01:42:56.056Z,42.49
2023-04-11T01:43:56.123Z,42.60
2023-04-11T01:44:56.159Z,43.02
2023-04-11T01:45:56.213Z,43.29
2023-04-11T01:46:56.282Z,43.47
2023-04-11T01:47:56.458Z,43.90
2023-04-11T01:48:56.606Z,44.11
2023-04-11T01:49:56.812Z,43.82
2023-04-11T01:50:56.464Z,43.49
2023-04-11T01:51:56.478Z,43.53
2023-04-11T01:52:56.459Z,43.88
2023-04-11T01:53:56.458Z,43.64
2023-04-11T01:54:56.808Z,43.86
2023-04-11T01:55:56.816Z,43.90
2023-04-11T01:56:56.531Z,44.09
2023-04-11T01:57:56.584Z,43.87
2023-04-11T01:58:57.909Z,43.66
2023-04-11T01:59:56.669Z,43.37
2023-04-11T02:00:56.677Z,43.26
2023-04-11T02:01:57.185Z,43.35
2023-04-11T02:02:56.815Z,43.21
2023-04-11T02:03:56.866Z,43.63
2023-04-11T02:04:57.152Z,43.82
2023-04-11T02:05:56.835Z,44.08
2023-04-11T02:06:56.878Z,44.55
2023-04-11T02:07:57.305Z,45.06
2023-04-11T02:08:57.212Z,45.26
2023-04-11T02:09:57.031Z,45.43
2023-04-11T02:10:57.034Z,46.06
2023-04-11T02:11:57.095Z,46.55
2023-04-11T02:12:57.151Z,46.39
2023-04-11T02:13:57.156Z,46.00
2023-04-11T02:14:57.173Z,45.99
2023-04-11T02:15:57.211Z,45.77
2023-04-11T02:16:57.319Z,45.49
2023-04-11T02:17:57.315Z,45.69
2023-04-11T02:18:57.549Z,45.73
2023-04-11T02:19:57.504Z,45.64
2023-04-11T02:20:57.481Z,45.91
2023-04-11T02:21:57.558Z,46.07
2023-04-11T02:22:57.544Z,45.82
2023-04-11T02:23:57.703Z,45.47
2023-04-11T02:24:57.526Z,45.64
2023-04-11T02:25:57.514Z,45.68
2023-04-11T02:26:57.603Z,45.73
2023-04-11T02:27:57.518Z,46.45
2023-04-11T02:28:57.734Z,46.76
2023-04-11T02:29:57.534Z,46.76
2023-04-11T02:30:57.620Z,47.09
2023-04-11T02:31:57.713Z,47.35
2023-04-11T02:32:57.638Z,47.17
2023-04-11T02:33:57.576Z,47.32
2023-04-11T02:34:57.617Z,47.23
2023-04-11T02:35:57.632Z,46.88
2023-04-11T02:36:57.697Z,46.45
2023-04-11T02:37:57.701Z,46.04
2023-04-11T02:38:57.760Z,45.70
2023-04-11T02:39:57.837Z,45.59
2023-04-11T02:40:57.825Z,45.46
2023-04-11T02:41:57.824Z,45.02
2023-04-11T02:42:58.136Z,44.69
2023-04-11T02:43:57.854Z,44.55
2023-04-11T02:44:58.145Z,44.90
2023-04-11T02:46:05.826Z,44.93
2023-04-11T02:46:58.871Z,44.73
2023-04-11T02:47:57.890Z,44.53
2023-04-11T02:48:58.029Z,44.51
2023-04-11T02:49:57.823Z,44.46
2023-04-11T02:50:57.801Z,44.72
2023-04-11T02:51:57.879Z,44.79
2023-04-11T02:52:57.836Z,45.00
2023-04-11T02:53:57.794Z,45.01
2023-04-11T02:54:57.763Z,44.79
2023-04-11T02:55:57.792Z,44.50
2023-04-11T02:56:57.806Z,44.88
2023-04-11T02:57:57.713Z,44.73
2023-04-11T02:58:58.113Z,44.24
2023-04-11T02:59:57.813Z,43.93
2023-04-11T03:00:57.856Z,43.94
2023-04-11T03:01:58.003Z,44.08
2023-04-11T03:02:57.975Z,44.21
2023-04-11T03:03:57.993Z,44.59
2023-04-11T03:04:57.932Z,45.11
2023-04-11T03:05:57.986Z,45.44
2023-04-11T03:06:57.968Z,45.31
2023-04-11T03:07:58.263Z,44.67
2023-04-11T03:08:58.254Z,44.28
2023-04-11T03:09:57.941Z,44.01
2023-04-11T03:10:57.929Z,44.23
2023-04-11T03:11:57.908Z,44.28
2023-04-11T03:12:57.927Z,44.84
2023-04-11T03:13:57.946Z,44.81
2023-04-11T03:14:58.006Z,44.73
2023-04-11T03:15:57.989Z,44.45
2023-04-11T03:16:57.968Z,44.21
2023-04-11T03:17:57.983Z,43.96
2023-04-11T03:18:58.027Z,43.56
2023-04-11T03:19:57.975Z,43.02
2023-04-11T03:20:58.098Z,42.80
2023-04-11T03:21:58.152Z,42.73
2023-04-11T03:22:58.216Z,43.32
2023-04-11T03:23:58.215Z,43.64
2023-04-11T03:24:58.234Z,43.94
2023-04-11T03:25:58.295Z,44.00
2023-04-11T03:26:58.402Z,44.26
2023-04-11T03:27:58.361Z,43.96
2023-04-11T03:28:58.388Z,43.44
2023-04-11T03:29:58.469Z,43.07
2023-04-11T03:30:58.525Z,42.93
2023-04-11T03:31:58.478Z,42.81
2023-04-11T03:32:58.563Z,42.82
2023-04-11T03:33:58.473Z,42.70
2023-04-11T03:34:58.486Z,42.59
2023-04-11T03:35:58.545Z,42.68
2023-04-11T03:36:58.542Z,42.71
2023-04-11T03:37:58.566Z,42.68
2023-04-11T03:38:58.586Z,42.73
2023-04-11T03:39:58.523Z,43.10
2023-04-11T03:40:58.646Z,43.66
2023-04-11T03:41:58.602Z,44.49
2023-04-11T03:42:58.594Z,45.01
2023-04-11T03:43:58.641Z,45.04
2023-04-11T03:44:58.736Z,44.84
2023-04-11T03:45:58.725Z,44.74
2023-04-11T03:46:58.823Z,44.46
2023-04-11T03:47:58.815Z,44.44
2023-04-11T03:48:58.882Z,44.56
2023-04-11T03:49:58.801Z,44.52
2023-04-11T03:50:58.915Z,44.65
2023-04-11T03:51:58.968Z,44.52
2023-04-11T03:52:59.037Z,44.97
2023-04-11T03:53:59.027Z,44.95
2023-04-11T03:54:59.104Z,44.85
2023-04-11T03:55:59.146Z,44.72
2023-04-11T03:56:59.183Z,44.64
2023-04-11T03:57:59.242Z,44.80
2023-04-11T03:58:59.297Z,45.39
2023-04-11T03:59:59.369Z,45.76
2023-04-11T04:00:59.273Z,46.23
2023-04-11T04:01:59.439Z,46.57
2023-04-11T04:02:59.510Z,46.84
2023-04-11T04:03:59.766Z,46.94
2023-04-11T04:04:59.450Z,46.76
2023-04-11T04:05:59.509Z,46.49
2023-04-11T04:06:59.484Z,46.17
2023-04-11T04:07:59.448Z,45.85
2023-04-11T04:08:59.453Z,45.77
2023-04-11T04:09:59.526Z,46.18
2023-04-11T04:10:59.455Z,46.18
2023-04-11T04:11:59.451Z,45.82
2023-04-11T04:12:59.532Z,45.61
2023-04-11T04:13:59.495Z,45.40
2023-04-11T04:14:59.477Z,45.74
2023-04-11T04:16:01.276Z,46.26
2023-04-11T04:16:59.560Z,46.80
2023-04-11T04:17:59.480Z,47.06
2023-04-11T04:18:59.463Z,47.17
2023-04-11T04:19:59.476Z,47.35
2023-04-11T04:20:59.468Z,47.31
2023-04-11T04:21:59.475Z,47.28
2023-04-11T04:22:59.461Z,47.48
2023-04-11T04:23:59.445Z,47.70
2023-04-11T04:24:59.420Z,47.73
2023-04-11T04:25:59.420Z,47.68
2023-04-11T04:26:59.446Z,47.80
2023-04-11T04:27:59.423Z,48.04
2023-04-11T04:28:59.427Z,48.02
2023-04-11T04:30:03.332Z,47.87
2023-04-11T04:31:00.502Z,47.93
2023-04-11T04:31:59.417Z,47.35
2023-04-11T04:32:59.744Z,46.88
2023-04-11T04:33:59.332Z,46.88
2023-04-11T04:34:59.370Z,47.12
2023-04-11T04:35:59.508Z,46.93
2023-04-11T04:36:59.448Z,46.78
2023-04-11T04:37:59.393Z,46.83
2023-04-11T04:38:59.374Z,46.77
2023-04-11T04:39:59.337Z,46.66
2023-04-11T04:40:59.349Z,46.94
2023-04-11T04:41:59.388Z,46.68
2023-04-11T04:42:59.326Z,46.81
2023-04-11T04:43:59.568Z,47.14
2023-04-11T04:44:59.321Z,47.21
2023-04-11T04:45:59.367Z,46.97
2023-04-11T04:46:59.303Z,46.48
2023-04-11T04:47:59.384Z,46.02
2023-04-11T04:49:01.675Z,45.66
2023-04-11T04:49:59.252Z,45.15
2023-04-11T04:50:59.283Z,44.91
2023-04-11T04:51:59.284Z,44.65
2023-04-11T04:52:59.274Z,44.54
2023-04-11T04:53:59.301Z,44.24
2023-04-11T04:54:59.255Z,44.08
2023-04-11T04:55:59.256Z,43.96
2023-04-11T04:56:59.277Z,43.91
2023-04-11T04:57:59.255Z,43.76
2023-04-11T04:58:59.224Z,43.68
2023-04-11T04:59:59.262Z,43.66
2023-04-11T05:00:59.236Z,43.40
2023-04-11T05:01:59.304Z,43.23
2023-04-11T05:03:00.003Z,43.30
2023-04-11T05:04:00.017Z,43.22
2023-04-11T05:04:59.242Z,43.73
2023-04-11T05:05:59.190Z,43.78
2023-04-11T05:06:59.289Z,44.25
2023-04-11T05:07:59.257Z,44.45
2023-04-11T05:08:59.172Z,44.56
2023-04-11T05:09:59.774Z,44.57
2023-04-11T05:10:59.140Z,44.82
2023-04-11T05:11:59.133Z,44.82
2023-04-11T05:12:59.142Z,44.78
2023-04-11T05:13:59.570Z,44.47
2023-04-11T05:14:59.222Z,44.07
2023-04-11T05:15:59.114Z,43.58
2023-04-11T05:16:59.203Z,43.19
2023-04-11T05:17:59.172Z,42.95
2023-04-11T05:18:59.087Z,42.78
2023-04-11T05:19:59.087Z,42.70
2023-04-11T05:20:59.151Z,42.80
2023-04-11T05:21:59.107Z,42.86
2023-04-11T05:22:59.910Z,42.71
2023-04-11T05:23:59.064Z,42.50
2023-04-11T05:24:59.097Z,42.34
2023-04-11T05:25:59.089Z,42.33
2023-04-11T05:26:59.234Z,42.24
2023-04-11T05:27:59.520Z,42.21
2023-04-11T05:28:59.202Z,42.55
2023-04-11T05:29:58.995Z,43.00
2023-04-11T05:31:00.818Z,43.66
2023-04-11T05:31:59.026Z,44.39
2023-04-11T05:32:59.429Z,44.70
2023-04-11T05:33:59.145Z,45.37
2023-04-11T05:34:59.488Z,45.88
2023-04-11T05:35:59.094Z,46.37
2023-04-11T05:36:59.045Z,46.43
2023-04-11T05:37:59.309Z,47.25
2023-04-11T05:38:59.892Z,47.46
2023-04-11T05:39:59.081Z,47.60
2023-04-11T05:40:59.148Z,47.67
2023-04-11T05:41:59.026Z,47.55
2023-04-11T05:42:59.313Z,47.63
2023-04-11T05:43:59.051Z,47.63
2023-04-11T05:44:59.110Z,47.88
2023-04-11T05:47:19.666Z,48.37
2023-04-11T05:48:19.083Z,47.90
2023-04-11T05:49:18.899Z,47.56
2023-04-11T05:50:19.001Z,47.20
2023-04-11T05:51:18.898Z,47.12
2023-04-11T05:52:19.455Z,47.13
2023-04-11T05:53:19.173Z,47.17
2023-04-11T05:54:19.236Z,47.01
2023-04-11T05:55:19.407Z,46.68
2023-04-11T05:56:19.246Z,46.23
2023-04-11T05:57:19.215Z,45.91
2023-04-11T05:58:19.468Z,45.73
2023-04-11T05:59:24.709Z,45.69
2023-04-11T06:00:19.845Z,45.63
2023-04-11T06:01:20.080Z,45.21
2023-04-11T06:02:19.440Z,44.45
2023-04-11T06:03:20.513Z,44.29
2023-04-11T06:04:19.612Z,44.26
2023-04-11T06:05:19.354Z,44.68
2023-04-11T06:06:19.295Z,44.47
2023-04-11T06:07:20.321Z,44.05
2023-04-11T06:08:19.320Z,44.26
2023-04-11T06:09:19.346Z,44.76
2023-04-11T06:10:19.386Z,45.25
2023-04-11T06:11:19.817Z,45.35
2023-04-11T06:12:19.102Z,44.88
2023-04-11T06:13:19.265Z,44.22
2023-04-11T06:14:19.908Z,43.55
2023-04-11T06:15:19.488Z,43.20
2023-04-11T06:16:19.428Z,43.05
2023-04-11T06:17:19.450Z,43.25
2023-04-11T06:18:20.260Z,43.17
2023-04-11T06:19:19.338Z,42.94
2023-04-11T06:20:19.431Z,42.61
2023-04-11T06:21:19.240Z,42.30
2023-04-11T06:22:19.272Z,42.54
2023-04-11T06:23:19.288Z,42.25
2023-04-11T06:24:19.443Z,42.11
2023-04-11T06:25:19.354Z,42.13
2023-04-11T06:26:19.402Z,42.09
2023-04-11T06:27:19.256Z,41.89
2023-04-11T06:28:19.307Z,41.81
2023-04-11T06:29:19.377Z,41.59
2023-04-11T06:30:19.430Z,41.57
2023-04-11T06:31:19.467Z,41.36
2023-04-11T06:32:19.790Z,41.33
2023-04-11T06:33:19.416Z,41.36
2023-04-11T06:34:19.358Z,41.36
2023-04-11T06:35:19.374Z,41.05
2023-04-11T06:36:19.470Z,40.91
2023-04-11T06:37:19.378Z,40.83
2023-04-11T06:38:20.874Z,40.83
2023-04-11T06:39:19.274Z,40.65
2023-04-11T06:40:19.253Z,40.39
2023-04-11T06:42:39.169Z,40.52
2023-04-11T06:43:39.986Z,40.48
2023-04-11T06:44:40.064Z,40.51
2023-04-11T06:45:39.106Z,40.63
2023-04-11T06:46:39.146Z,40.55
2023-04-11T06:47:39.922Z,40.59
2023-04-11T06:48:39.253Z,40.42
2023-04-11T06:49:39.973Z,40.52
2023-04-11T06:50:39.206Z,40.50
2023-04-11T06:51:39.172Z,40.36
2023-04-11T06:52:39.089Z,40.48
2023-04-11T06:53:39.046Z,40.43
2023-04-11T06:54:39.183Z,40.40
2023-04-11T06:55:39.136Z,40.49
2023-04-11T06:56:39.226Z,40.30
2023-04-11T06:57:39.138Z,40.23
2023-04-11T06:58:39.705Z,40.84
2023-04-11T06:59:39.891Z,41.73
2023-04-11T07:00:39.063Z,42.03
2023-04-11T07:01:39.362Z,42.44
2023-04-11T07:02:39.401Z,42.52
2023-04-11T07:03:39.767Z,42.10
2023-04-11T07:04:39.175Z,41.99
2023-04-11T07:05:39.670Z,42.21
2023-04-11T07:06:39.094Z,42.23
2023-04-11T07:07:39.093Z,42.33
2023-04-11T07:08:39.145Z,42.20
2023-04-11T07:09:40.249Z,41.84
2023-04-11T07:10:39.226Z,41.98
2023-04-11T07:11:39.035Z,42.13
2023-04-11T07:12:39.209Z,42.38
2023-04-11T07:13:39.255Z,42.64
2023-04-11T07:14:39.237Z,42.73
2023-04-11T07:15:39.207Z,42.83
2023-04-11T07:16:39.287Z,43.09
2023-04-11T07:17:39.395Z,43.20
2023-04-11T07:18:39.238Z,43.09
2023-04-11T07:19:39.208Z,43.31
2023-04-11T07:20:39.283Z,43.38
2023-04-11T07:21:39.203Z,43.76
2023-04-11T07:22:39.269Z,43.75
2023-04-11T07:23:40.127Z,43.63
2023-04-11T07:24:39.136Z,43.38
2023-04-11T07:25:39.084Z,43.48
2023-04-11T07:26:39.118Z,43.64
2023-04-11T07:27:39.133Z,43.44
2023-04-11T07:28:39.075Z,43.50
2023-04-11T07:29:39.102Z,43.62
2023-04-11T07:30:39.052Z,43.86
2023-04-11T07:31:39.115Z,43.74
2023-04-11T07:32:39.185Z,43.87
2023-04-11T07:33:39.505Z,43.56
2023-04-11T07:34:39.184Z,43.87
2023-04-11T07:35:39.167Z,43.97
2023-04-11T07:36:39.163Z,43.39
2023-04-11T07:37:39.174Z,43.45
2023-04-11T07:38:39.486Z,43.43
2023-04-11T07:39:39.243Z,43.33
2023-04-11T07:40:39.255Z,42.95
2023-04-11T07:41:39.456Z,42.56
2023-04-11T07:42:39.335Z,42.30
2023-04-11T07:43:39.572Z,42.16
2023-04-11T07:44:39.462Z,41.92
2023-04-11T07:45:39.709Z,41.49
2023-04-11T07:46:39.541Z,42.19
2023-04-11T07:47:39.603Z,42.56
2023-04-11T07:48:40.070Z,42.77
2023-04-11T07:49:39.592Z,43.27
2023-04-11T07:50:39.712Z,43.44
2023-04-11T07:51:39.715Z,43.56
2023-04-11T07:52:39.618Z,43.08
2023-04-11T07:53:39.690Z,42.84
2023-04-11T07:54:39.634Z,42.60
2023-04-11T07:55:39.577Z,42.38
2023-04-11T07:56:39.616Z,42.55
2023-04-11T07:57:40.296Z,41.86
2023-04-11T07:58:39.652Z,41.92
2023-04-11T07:59:39.604Z,41.87
2023-04-11T08:00:42.203Z,41.74
2023-04-11T08:01:39.693Z,41.72
2023-04-11T08:02:39.725Z,41.62
2023-04-11T08:03:39.659Z,41.41
2023-04-11T08:04:39.821Z,40.84
2023-04-11T08:05:39.586Z,40.72
2023-04-11T08:06:39.464Z,40.48
2023-04-11T08:07:39.445Z,40.44
2023-04-11T08:08:40.549Z,40.63
2023-04-11T08:09:39.461Z,40.55
2023-04-11T08:10:39.525Z,40.88
2023-04-11T08:11:39.530Z,40.85
2023-04-11T08:12:39.517Z,40.64
2023-04-11T08:13:39.555Z,40.43
2023-04-11T08:14:39.502Z,40.44
2023-04-11T08:15:39.486Z,40.42
2023-04-11T08:16:39.540Z,39.97
2023-04-11T08:17:39.561Z,40.18
2023-04-11T08:18:39.450Z,40.12
2023-04-11T08:19:39.504Z,40.10
2023-04-11T08:20:39.568Z,40.01
2023-04-11T08:21:39.413Z,39.74
2023-04-11T08:22:39.456Z,39.07
2023-04-11T08:23:39.436Z,38.89
2023-04-11T08:24:39.514Z,39.14
2023-04-11T08:25:39.449Z,39.36
2023-04-11T08:26:39.541Z,38.99
2023-04-11T08:27:39.387Z,38.97
2023-04-11T08:28:41.114Z,39.14
2023-04-11T08:29:39.989Z,39.21
2023-04-11T08:30:40.528Z,39.45
2023-04-11T08:31:39.737Z,39.26
2023-04-11T08:32:40.624Z,38.68
2023-04-11T08:33:39.819Z,38.50
2023-04-11T08:34:39.712Z,38.50
2023-04-11T08:35:39.833Z,38.71
2023-04-11T08:36:39.718Z,38.33
2023-04-11T08:37:39.785Z,38.33
2023-04-11T08:38:39.698Z,38.48
2023-04-11T08:39:40.056Z,38.67
2023-04-11T08:40:39.884Z,38.44
2023-04-11T08:41:39.660Z,37.62
2023-04-11T08:42:39.680Z,37.58
2023-04-11T08:43:39.655Z,37.74
2023-04-11T08:44:39.633Z,38.16
2023-04-11T08:45:39.667Z,38.03
2023-04-11T08:46:39.764Z,38.43
2023-04-11T08:47:39.759Z,38.83
2023-04-11T08:48:39.810Z,39.41
2023-04-11T08:49:40.537Z,39.24
2023-04-11T08:50:40.599Z,38.66
2023-04-11T08:51:39.722Z,38.62
2023-04-11T08:52:39.803Z,38.59
2023-04-11T08:53:40.040Z,38.83
2023-04-11T08:54:39.986Z,38.84
2023-04-11T08:55:39.862Z,39.03
2023-04-11T08:56:39.749Z,38.62
2023-04-11T08:57:39.854Z,38.74
2023-04-11T08:58:41.359Z,39.00
2023-04-11T08:59:39.766Z,39.05
2023-04-11T09:00:39.712Z,38.58
2023-04-11T09:01:39.833Z,38.35
2023-04-11T09:02:39.921Z,38.02
2023-04-11T09:03:39.877Z,37.89
2023-04-11T09:04:39.905Z,37.52
2023-04-11T09:05:39.934Z,37.93
2023-04-11T09:06:39.938Z,38.15
2023-04-11T09:07:39.828Z,39.21
2023-04-11T09:08:39.899Z,39.38
2023-04-11T09:09:39.932Z,39.21
2023-04-11T09:10:39.932Z,39.40
2023-04-11T09:11:39.958Z,39.08
2023-04-11T09:12:40.036Z,38.90
2023-04-11T09:13:40.087Z,38.80
2023-04-11T09:14:40.206Z,38.75
2023-04-11T09:15:40.107Z,39.42
2023-04-11T09:16:40.100Z,40.11
2023-04-11T09:17:40.168Z,41.23
2023-04-11T09:18:40.174Z,40.15
2023-04-11T09:19:40.089Z,40.52
2023-04-11T09:20:40.117Z,40.12
2023-04-11T09:21:40.222Z,40.17
2023-04-11T09:22:42.612Z,39.91
2023-04-11T09:23:40.537Z,40.26
2023-04-11T09:24:40.262Z,40.16
2023-04-11T09:25:40.130Z,40.21
2023-04-11T09:26:40.142Z,40.29
2023-04-11T09:27:40.176Z,40.25
2023-04-11T09:28:40.565Z,40.54
2023-04-11T09:29:40.221Z,40.76
2023-04-11T09:30:40.212Z,40.65
2023-04-11T09:31:40.317Z,41.40
2023-04-11T09:32:40.201Z,40.97
2023-04-11T09:33:40.441Z,41.53
2023-04-11T09:34:42.400Z,41.89
2023-04-11T09:35:40.103Z,41.68
2023-04-11T09:36:41.107Z,42.59
2023-04-11T09:37:40.131Z,43.55
2023-04-11T09:38:40.053Z,44.29
2023-04-11T09:39:40.700Z,44.62
2023-04-11T09:40:40.255Z,44.46
2023-04-11T09:41:40.053Z,45.19
2023-04-11T09:42:40.062Z,45.81
2023-04-11T09:43:40.087Z,45.83
2023-04-11T09:44:40.619Z,45.38
2023-04-11T09:45:51.719Z,46.04
2023-04-11T09:46:41.043Z,46.77
2023-04-11T09:47:41.389Z,47.45
2023-04-11T09:48:46.383Z,47.10
2023-04-11T09:49:40.992Z,46.83
2023-04-11T09:50:40.024Z,47.33
2023-04-11T09:51:40.469Z,45.58
2023-04-11T09:52:40.017Z,45.20
2023-04-11T09:53:40.000Z,45.58
2023-04-11T09:54:40.150Z,45.61
2023-04-11T09:55:39.944Z,45.22
2023-04-11T09:56:39.961Z,44.55
2023-04-11T09:57:39.962Z,44.33
2023-04-11T09:58:39.964Z,44.56
2023-04-11T09:59:40.044Z,45.14
2023-04-11T10:00:39.967Z,45.15
2023-04-11T10:01:40.096Z,45.37
2023-04-11T10:02:40.341Z,44.10
2023-04-11T10:03:40.119Z,44.65
2023-04-11T10:04:40.136Z,43.83
2023-04-11T10:05:40.104Z,44.48
2023-04-11T10:06:40.256Z,44.18
2023-04-11T10:07:40.329Z,44.38
2023-04-11T10:08:40.270Z,44.43
2023-04-11T10:09:40.434Z,44.24
2023-04-11T10:10:40.386Z,44.87
2023-04-11T10:11:40.478Z,44.52
2023-04-11T10:12:40.447Z,44.32
2023-04-11T10:13:40.402Z,44.52
2023-04-11T10:14:40.452Z,43.71
2023-04-11T10:15:40.452Z,43.82
2023-04-11T10:16:40.431Z,43.51
2023-04-11T10:17:40.613Z,44.36
2023-04-11T10:18:40.550Z,43.97
2023-04-11T10:19:40.550Z,44.09
2023-04-11T10:20:40.443Z,44.32
2023-04-11T10:21:40.515Z,44.46
2023-04-11T10:22:41.361Z,44.32
2023-04-11T10:23:40.615Z,44.17
2023-04-11T10:24:40.576Z,44.40
2023-04-11T10:25:40.594Z,44.26
2023-04-11T10:26:40.554Z,45.30
2023-04-11T10:27:40.494Z,44.58
2023-04-11T10:28:40.505Z,45.52
2023-04-11T10:29:40.636Z,46.26
2023-04-11T10:30:40.508Z,45.80
2023-04-11T10:31:40.601Z,45.03
2023-04-11T10:32:40.550Z,45.29
2023-04-11T10:33:40.508Z,44.94
2023-04-11T10:34:41.027Z,44.93
2023-04-11T10:35:40.569Z,46.07
2023-04-11T10:36:40.560Z,47.08
2023-04-11T10:37:43.812Z,47.53
2023-04-11T10:38:41.922Z,47.90
2023-04-11T10:39:41.061Z,47.62
2023-04-11T10:40:40.680Z,47.37
2023-04-11T10:41:40.704Z,47.76
2023-04-11T10:42:40.749Z,47.15
2023-04-11T10:43:40.885Z,47.10
2023-04-11T10:44:40.855Z,47.46
2023-04-11T10:45:40.689Z,47.47
2023-04-11T10:46:42.768Z,46.99
2023-04-11T10:47:40.681Z,47.28
2023-04-11T10:48:40.656Z,48.15
2023-04-11T10:49:40.709Z,48.88
2023-04-11T10:50:40.724Z,49.58
2023-04-11T10:51:40.622Z,50.50
2023-04-11T10:52:40.637Z,50.98
2023-04-11T10:53:40.539Z,51.43
2023-04-11T10:54:40.681Z,51.91
2023-04-11T10:55:40.851Z,51.53
2023-04-11T10:56:40.501Z,51.37
2023-04-11T10:57:40.592Z,51.45
2023-04-11T10:58:40.673Z,51.68
2023-04-11T10:59:41.223Z,51.83
2023-04-11T11:00:40.806Z,51.83
2023-04-11T11:02:41.175Z,51.84
2023-04-11T11:03:40.848Z,52.18
2023-04-11T11:04:41.024Z,52.39
2023-04-11T11:05:40.637Z,53.31
2023-04-11T11:06:47.333Z,52.79
2023-04-11T11:07:42.514Z,52.10
2023-04-11T11:08:42.265Z,51.61
2023-04-11T11:09:42.311Z,51.18
2023-04-11T11:10:41.546Z,51.09
2023-04-11T11:11:40.592Z,50.87
2023-04-11T11:12:40.845Z,51.46
2023-04-11T11:13:42.744Z,51.30
2023-04-11T11:14:40.521Z,51.55
2023-04-11T11:15:40.749Z,50.52
2023-04-11T11:16:40.711Z,49.80
2023-04-11T11:17:40.614Z,49.20
2023-04-11T11:18:40.634Z,48.01
2023-04-11T11:19:40.616Z,47.25
2023-04-11T11:20:40.522Z,46.58
2023-04-11T11:21:40.556Z,47.11
2023-04-11T11:22:40.536Z,48.58
2023-04-11T11:23:40.627Z,49.15
2023-04-11T11:24:40.649Z,49.54
2023-04-11T11:25:41.110Z,48.81
2023-04-11T11:26:41.394Z,48.12
2023-04-11T11:27:41.492Z,48.49
2023-04-11T11:28:42.842Z,47.66
2023-04-11T11:29:41.187Z,48.13
2023-04-11T11:30:41.333Z,47.46
2023-04-11T11:31:41.329Z,47.25
2023-04-11T11:32:41.276Z,46.99
2023-04-11T11:33:41.115Z,47.83
2023-04-11T11:34:41.657Z,48.40
2023-04-11T11:35:41.138Z,47.83
2023-04-11T11:36:41.075Z,48.16
2023-04-11T11:37:41.181Z,47.86
2023-04-11T11:38:40.863Z,48.23
2023-04-11T11:39:41.064Z,48.25
2023-04-11T11:40:40.895Z,49.32
2023-04-11T11:41:41.678Z,48.95
2023-04-11T11:42:40.983Z,48.65
2023-04-11T11:43:40.971Z,48.31
2023-04-11T11:44:41.004Z,48.76
2023-04-11T11:45:40.990Z,49.35
2023-04-11T11:46:40.961Z,48.76
2023-04-11T11:47:42.329Z,48.71
2023-04-11T11:48:41.035Z,48.77
2023-04-11T11:49:41.059Z,48.87
2023-04-11T11:50:41.045Z,49.08
2023-04-11T11:51:40.962Z,49.09
2023-04-11T11:52:41.053Z,48.89
2023-04-11T11:53:41.083Z,48.72
2023-04-11T11:54:40.967Z,49.22
2023-04-11T11:55:41.111Z,49.53
2023-04-11T11:56:41.019Z,50.15
2023-04-11T11:57:41.222Z,50.80
2023-04-11T11:58:42.119Z,51.26
2023-04-11T11:59:41.131Z,50.75
2023-04-11T12:00:41.100Z,50.08
2023-04-11T12:01:41.040Z,50.11
2023-04-11T12:02:41.192Z,49.74
2023-04-11T12:03:41.182Z,49.35
2023-04-11T12:04:41.290Z,50.10
2023-04-11T12:05:41.026Z,49.56
2023-04-11T12:06:40.970Z,49.77
2023-04-11T12:07:41.057Z,49.87
2023-04-11T12:08:40.989Z,49.72
2023-04-11T12:09:40.968Z,49.69
2023-04-11T12:10:41.098Z,49.38
2023-04-11T12:11:41.089Z,49.55
2023-04-11T12:12:41.223Z,49.77
2023-04-11T12:13:41.036Z,50.67
2023-04-11T12:14:41.052Z,51.07
2023-04-11T12:15:41.287Z,51.08
2023-04-11T12:16:41.008Z,51.17
2023-04-11T12:17:41.246Z,51.34
2023-04-11T12:18:41.043Z,51.09
2023-04-11T12:19:41.042Z,50.85
2023-04-11T12:20:41.068Z,49.65
2023-04-11T12:21:40.971Z,49.11
2023-04-11T12:22:41.018Z,48.25
2023-04-11T12:23:40.976Z,47.82
2023-04-11T12:24:41.002Z,47.36
2023-04-11T12:25:40.990Z,47.06
2023-04-11T12:26:57.540Z,46.55
2023-04-11T12:27:40.987Z,46.92
2023-04-11T12:28:40.974Z,46.89
2023-04-11T12:29:40.929Z,45.77
2023-04-11T12:30:40.970Z,45.98
2023-04-11T12:31:41.610Z,46.51
2023-04-11T12:32:40.939Z,46.97
2023-04-11T12:33:41.021Z,45.68
2023-04-11T12:34:40.891Z,44.77
2023-04-11T12:35:40.963Z,45.07
2023-04-11T12:36:40.879Z,45.14
2023-04-11T12:37:40.971Z,45.56
2023-04-11T12:38:41.063Z,45.75
2023-04-11T12:39:40.894Z,45.88
2023-04-11T12:40:40.902Z,45.84
2023-04-11T12:41:40.900Z,46.09
2023-04-11T12:42:48.965Z,47.32
2023-04-11T12:43:41.878Z,48.19
2023-04-11T12:44:40.825Z,48.23
2023-04-11T12:45:40.935Z,47.93
2023-04-11T12:46:40.815Z,47.55
2023-04-11T12:47:40.903Z,47.37
2023-04-11T12:48:40.889Z,47.24
2023-04-11T12:49:40.845Z,47.42
2023-04-11T12:50:40.853Z,46.96
2023-04-11T12:51:40.825Z,47.04
2023-04-11T12:52:40.809Z,46.75
2023-04-11T12:53:40.878Z,47.25
2023-04-11T12:54:40.871Z,47.25
2023-04-11T12:55:40.847Z,47.26
2023-04-11T12:56:40.819Z,47.61